Time;durP1;ratioP1;P1;durP2;ratioP2;P2;SDS_P1;SDS_P2;PMS_P1;PMS_P2;Temp;Humidity;BMP_temperature;BMP_pressure;BME280_temperature;BME280_humidity;BME280_pressure;Samples;Min_cycle;Max_cycle;Signal;HPM_P1;HPM_P2
2021/11/18 00:00:47;;;;;;;3.90;2.97;;;;;;;20.58;55.96;98484.06;4989099;28;20711;-61
2021/11/18 00:03:14;;;;;;;3.67;2.60;;;;;;;20.53;56.39;98482.97;4991089;28;20282;-63
2021/11/18 00:05:41;;;;;;;2.50;2.30;;;;;;;20.58;56.13;98486.63;4951376;28;20234;-61
2021/11/18 00:08:08;;;;;;;2.97;2.50;;;;;;;20.58;56.10;98490.06;4973477;28;20250;-61
2021/11/18 00:10:37;;;;;;;2.80;2.30;;;;;;;20.56;56.04;98488.22;4973752;28;20309;-61
2021/11/18 00:13:04;;;;;;;2.53;2.30;;;;;;;20.48;55.96;98482.72;4990773;28;20195;-61
2021/11/18 00:15:32;;;;;;;2.97;2.57;;;;;;;20.58;56.13;98500.28;4973318;28;20230;-62
2021/11/18 00:18:00;;;;;;;3.17;2.30;;;;;;;20.58;56.11;98496.84;4991130;28;20237;-61
2021/11/18 00:20:29;;;;;;;3.00;2.50;;;;;;;20.57;56.05;98487.44;4952105;28;20278;-61
2021/11/18 00:22:56;;;;;;;3.20;2.50;;;;;;;20.57;56.07;98477.22;4989035;28;20298;-62
2021/11/18 00:25:23;;;;;;;2.50;2.30;;;;;;;20.56;55.97;98486.53;4990884;28;20578;-61
2021/11/18 00:27:49;;;;;;;2.57;2.37;;;;;;;20.56;55.97;98489.09;4973481;28;20306;-61
2021/11/18 00:30:16;;;;;;;2.60;2.40;;;;;;;20.56;56.16;98484.00;4990265;28;20289;-62
2021/11/18 00:32:43;;;;;;;2.73;2.43;;;;;;;20.57;56.02;98487.44;4990231;28;20203;-61
2021/11/18 00:35:11;;;;;;;2.70;2.10;;;;;;;20.53;56.08;98482.97;4986710;28;20209;-61
2021/11/18 00:37:38;;;;;;;2.30;2.10;;;;;;;20.57;56.21;98497.66;4973605;28;20237;-61
2021/11/18 00:40:05;;;;;;;2.60;2.13;;;;;;;20.56;56.00;98498.44;4968661;28;20246;-62
2021/11/18 00:42:32;;;;;;;2.70;2.43;;;;;;;20.55;56.09;98499.25;4986132;28;20278;-61
2021/11/18 00:45:00;;;;;;;3.17;2.60;;;;;;;20.57;56.15;98501.06;4990399;28;21375;-62
2021/11/18 00:47:26;;;;;;;2.77;2.33;;;;;;;20.55;56.14;98500.13;4990401;28;20310;-61
2021/11/18 00:49:53;;;;;;;3.07;2.40;;;;;;;20.56;56.10;98490.75;4989247;28;20254;-61
2021/11/18 00:52:20;;;;;;;2.43;2.23;;;;;;;20.54;55.99;98493.25;4989174;28;20222;-61
2021/11/18 00:54:47;;;;;;;2.20;2.00;;;;;;;20.57;56.19;98495.09;4957443;28;20234;-59
2021/11/18 00:57:14;;;;;;;2.70;2.20;;;;;;;20.56;56.05;98499.31;4973081;28;20223;-61
2021/11/18 00:59:40;;;;;;;3.03;2.63;;;;;;;20.56;56.32;98499.31;4984133;28;20254;-61
2021/11/18 01:02:07;;;;;;;2.67;2.47;;;;;;;20.56;55.80;98503.53;4989811;28;20230;-61
2021/11/18 01:04:34;;;;;;;3.43;2.30;;;;;;;20.56;56.24;98499.31;4989676;28;20200;-62
2021/11/18 01:07:01;;;;;;;2.50;2.30;;;;;;;20.52;56.09;98505.06;4990442;28;20203;-61
2021/11/18 01:09:27;;;;;;;3.03;2.17;;;;;;;20.56;56.31;98523.97;4972805;28;20219;-61
2021/11/18 01:11:54;;;;;;;2.17;1.97;;;;;;;20.57;56.38;98529.16;4984268;28;20195;-61
2021/11/18 01:14:21;;;;;;;3.00;2.20;;;;;;;20.57;56.15;98523.19;4987832;28;20249;-61
2021/11/18 01:16:48;;;;;;;2.73;2.20;;;;;;;20.56;56.24;98526.50;4990632;28;20199;-61
2021/11/18 01:19:15;;;;;;;3.37;2.47;;;;;;;20.56;56.30;98519.75;4972487;28;20742;-62
2021/11/18 01:21:42;;;;;;;2.50;2.30;;;;;;;20.56;56.14;98527.41;4985948;28;20218;-62
2021/11/18 01:24:09;;;;;;;2.57;2.30;;;;;;;20.57;56.13;98526.59;4953339;28;20641;-62
2021/11/18 01:26:35;;;;;;;2.40;2.20;;;;;;;20.40;55.88;98504.44;4972513;28;20741;-62
2021/11/18 01:29:03;;;;;;;2.30;2.10;;;;;;;20.54;56.13;98523.88;4990054;28;20313;-61
2021/11/18 01:31:30;;;;;;;3.17;2.37;;;;;;;20.56;56.12;98522.31;4986663;28;20302;-61
2021/11/18 01:33:57;;;;;;;2.90;2.50;;;;;;;20.57;56.37;98526.59;4986890;28;20199;-60
2021/11/18 01:36:23;;;;;;;2.87;2.40;;;;;;;20.57;56.46;98523.19;4985163;28;20234;-61
2021/11/18 01:38:50;;;;;;;2.43;2.23;;;;;;;20.51;56.28;98512.63;4989845;28;20222;-60
2021/11/18 01:41:25;;;;;;;2.53;2.10;;;;;;;20.41;56.36;98506.22;4962777;28;20222;-61
2021/11/18 01:43:54;;;;;;;2.53;2.33;;;;;;;20.56;56.20;98522.31;4971206;28;20230;-61
2021/11/18 01:46:23;;;;;;;2.40;2.20;;;;;;;20.39;56.28;98492.50;4970769;28;20227;-60
2021/11/18 01:48:50;;;;;;;2.20;2.00;;;;;;;20.38;56.24;98500.97;4972437;28;20227;-61
2021/11/18 01:51:18;;;;;;;2.40;2.20;;;;;;;20.56;56.21;98521.41;4971742;28;20501;-61
2021/11/18 01:53:45;;;;;;;3.00;2.30;;;;;;;20.56;56.12;98516.31;4990006;28;20227;-61
2021/11/18 01:56:23;;;;;;;2.57;2.37;;;;;;;20.55;56.10;98515.44;4988476;28;20235;-61
2021/11/18 01:58:55;;;;;;;2.53;2.33;;;;;;;20.55;56.24;98517.13;4990381;28;20305;-62
2021/11/18 02:01:21;;;;;;;2.40;2.20;;;;;;;20.55;56.26;98514.56;4988070;28;20226;-62
2021/11/18 02:03:48;;;;;;;2.83;2.53;;;;;;;20.54;56.10;98518.78;4992194;28;20675;-60
2021/11/18 02:06:25;;;;;;;2.87;2.50;;;;;;;20.54;56.29;98511.13;4990901;28;20218;-60
2021/11/18 02:08:52;;;;;;;2.70;2.27;;;;;;;20.55;56.28;98515.44;4960206;28;20679;-62
2021/11/18 02:11:33;;;;;;;2.20;2.00;;;;;;;20.54;56.35;98518.78;4989557;28;20237;-60
2021/11/18 02:14:00;;;;;;;2.57;2.30;;;;;;;20.48;56.24;98497.16;4992798;28;20285;-61
2021/11/18 02:16:27;;;;;;;2.23;2.07;;;;;;;20.55;56.27;98520.56;4992328;28;20230;-60
2021/11/18 02:18:54;;;;;;;2.30;2.10;;;;;;;20.56;56.37;98522.31;4975602;28;20214;-61
2021/11/18 02:21:20;;;;;;;2.47;2.20;;;;;;;20.55;56.23;98530.78;4992921;28;20700;-61
2021/11/18 02:23:56;;;;;;;2.57;2.30;;;;;;;20.57;56.40;98538.50;4992713;28;20282;-61
2021/11/18 02:26:23;;;;;;;2.83;2.30;;;;;;;20.55;56.21;98541.00;4974031;28;20253;-61
2021/11/18 02:28:51;;;;;;;2.40;2.20;;;;;;;20.50;56.30;98532.22;4991640;28;20670;-61
2021/11/18 02:31:24;;;;;;;2.33;2.07;;;;;;;20.55;56.30;98543.53;4972188;28;20199;-61
2021/11/18 02:33:51;;;;;;;2.63;2.30;;;;;;;20.56;56.25;98550.38;4992749;28;20199;-61
2021/11/18 02:36:17;;;;;;;2.60;2.40;;;;;;;20.55;56.19;98551.19;4991889;28;20234;-62
2021/11/18 02:38:44;;;;;;;2.50;2.30;;;;;;;20.56;56.35;98552.94;4990101;28;20254;-61
2021/11/18 02:41:12;;;;;;;2.50;2.30;;;;;;;20.51;56.47;98543.28;4992668;28;20203;-61
2021/11/18 02:43:39;;;;;;;2.57;2.37;;;;;;;20.56;56.58;98537.63;4958578;28;20325;-61
2021/11/18 02:46:05;;;;;;;4.23;2.30;;;;;;;20.56;56.31;98552.94;4970647;28;20294;-60
2021/11/18 02:48:32;;;;;;;2.40;2.20;;;;;;;20.56;56.10;98555.50;4989672;28;20344;-62
2021/11/18 02:51:00;;;;;;;2.27;2.03;;;;;;;20.57;56.38;98558.94;4990846;28;21255;-62
2021/11/18 02:53:27;;;;;;;2.23;1.90;;;;;;;20.56;56.26;98563.16;4971782;28;20261;-61
2021/11/18 02:55:54;;;;;;;2.30;2.10;;;;;;;20.56;56.39;98568.28;4989679;28;20282;-61
2021/11/18 02:58:21;;;;;;;2.03;1.90;;;;;;;20.57;56.42;98571.72;4992419;28;20699;-60
2021/11/18 03:00:50;;;;;;;2.20;2.00;;;;;;;20.56;56.24;98575.03;4991305;28;20219;-62
2021/11/18 03:03:17;;;;;;;2.20;2.00;;;;;;;20.56;56.22;98577.59;4990800;28;20231;-60
2021/11/18 03:05:44;;;;;;;2.50;2.30;;;;;;;20.55;56.12;98581.84;4990646;28;20213;-61
2021/11/18 03:08:11;;;;;;;2.33;2.13;;;;;;;20.55;56.30;98581.84;4991856;28;20268;-62
2021/11/18 03:10:38;;;;;;;2.87;2.40;;;;;;;20.55;56.01;98574.19;4991268;28;20218;-61
2021/11/18 03:13:04;;;;;;;2.40;2.20;;;;;;;20.53;56.21;98573.22;4973693;28;20234;-61
2021/11/18 03:15:31;;;;;;;2.30;2.10;;;;;;;20.10;56.08;98505.44;4976836;28;20246;-61
2021/11/18 03:17:58;;;;;;;2.50;2.30;;;;;;;20.42;56.11;98550.50;4991058;28;20202;-61
2021/11/18 03:20:25;;;;;;;2.10;1.93;;;;;;;20.54;56.32;98572.41;4965265;28;20312;-62
2021/11/18 03:22:52;;;;;;;2.23;2.03;;;;;;;20.54;56.12;98571.56;4971016;28;20575;-62
2021/11/18 03:25:21;;;;;;;2.00;1.90;;;;;;;20.54;56.19;98574.97;4991390;28;20234;-62
2021/11/18 03:27:48;;;;;;;2.67;2.10;;;;;;;20.54;56.30;98574.13;4985971;28;20254;-61
2021/11/18 03:30:21;;;;;;;2.30;2.10;;;;;;;20.54;56.15;98572.41;4976829;28;20476;-61
2021/11/18 03:32:49;;;;;;;2.40;2.20;;;;;;;20.23;56.24;98517.19;4956889;28;20230;-61
2021/11/18 03:35:16;;;;;;;2.40;2.20;;;;;;;20.55;56.44;98570.75;4979254;28;20253;-61
2021/11/18 03:37:43;;;;;;;2.20;2.03;;;;;;;20.54;56.28;98558.78;4991674;28;20235;-61
2021/11/18 03:40:10;;;;;;;2.87;2.20;;;;;;;20.38;56.23;98531.59;4991247;28;20219;-61
2021/11/18 03:42:36;;;;;;;2.30;2.10;;;;;;;20.55;56.31;98560.53;4990840;28;20286;-61
2021/11/18 03:45:04;;;;;;;2.47;2.27;;;;;;;20.55;56.41;98563.09;4991001;28;20226;-61
2021/11/18 03:47:31;;;;;;;2.53;2.20;;;;;;;20.52;56.27;98566.34;4968400;28;20265;-61
2021/11/18 03:49:58;;;;;;;2.23;2.03;;;;;;;20.54;56.01;98577.53;4990899;28;20648;-62
2021/11/18 03:52:24;;;;;;;2.13;1.93;;;;;;;20.54;56.38;98576.66;4987905;28;20286;-62
2021/11/18 03:54:51;;;;;;;2.20;2.00;;;;;;;20.54;56.35;98579.22;4990594;28;20199;-61
2021/11/18 03:57:17;;;;;;;2.70;2.30;;;;;;;20.55;56.52;98578.41;4991210;28;20290;-60
2021/11/18 03:59:46;;;;;;;2.40;2.20;;;;;;;20.53;56.34;98572.34;4974010;28;20266;-60
2021/11/18 04:02:12;;;;;;;2.80;2.03;;;;;;;20.53;56.46;98577.44;4962893;28;20236;-62
2021/11/18 04:04:43;;;;;;;2.30;2.10;;;;;;;20.50;56.45;98570.53;4987763;28;20668;-62
2021/11/18 04:07:10;;;;;;;2.23;2.03;;;;;;;20.54;56.48;98567.31;4971530;28;20226;-61
2021/11/18 04:09:37;;;;;;;2.30;2.10;;;;;;;20.55;56.41;98570.75;4958987;28;20285;-61
2021/11/18 04:12:04;;;;;;;2.30;2.10;;;;;;;20.54;56.34;98577.53;4986779;28;20226;-64
2021/11/18 04:14:31;;;;;;;2.20;2.00;;;;;;;20.55;56.40;98576.75;4974194;28;20314;-64
2021/11/18 04:16:58;;;;;;;2.27;2.07;;;;;;;20.51;56.55;98568.81;4990619;28;20707;-65
2021/11/18 04:19:24;;;;;;;2.30;2.10;;;;;;;20.51;56.28;98567.16;4974142;28;20418;-63
2021/11/18 04:21:53;;;;;;;2.10;1.90;;;;;;;20.54;56.48;98580.06;4973654;28;20199;-63
2021/11/18 04:24:22;;;;;;;2.30;2.10;;;;;;;20.55;56.45;98586.97;4973194;28;20546;-63
2021/11/18 04:26:49;;;;;;;2.93;2.40;;;;;;;20.53;56.44;98588.53;4985253;28;20260;-61
2021/11/18 04:29:16;;;;;;;2.40;2.20;;;;;;;20.55;56.31;98593.72;4990426;28;20258;-61
2021/11/18 04:31:43;;;;;;;2.27;2.07;;;;;;;20.54;56.26;98597.94;4972779;28;20206;-64
2021/11/18 04:34:10;;;;;;;2.43;2.23;;;;;;;20.54;56.17;98592.84;4973645;28;20349;-60
2021/11/18 04:36:38;;;;;;;2.30;2.10;;;;;;;20.52;56.19;98585.91;4990356;28;20753;-61
2021/11/18 04:39:06;;;;;;;2.00;1.87;;;;;;;20.49;56.12;98580.66;4970021;28;20649;-62
2021/11/18 04:41:33;;;;;;;2.17;1.90;;;;;;;20.52;56.28;98591.88;4957315;28;20249;-62
2021/11/18 04:43:59;;;;;;;1.97;1.87;;;;;;;20.53;56.35;98608.97;4990649;28;20246;-61
2021/11/18 04:46:26;;;;;;;2.17;1.97;;;;;;;20.53;56.44;98614.09;4990388;28;20230;-62
2021/11/18 04:48:53;;;;;;;2.30;2.10;;;;;;;20.50;56.44;98613.94;4982854;28;20325;-61
2021/11/18 04:51:21;;;;;;;2.40;2.20;;;;;;;20.54;56.41;98609.88;4971101;28;20226;-62
2021/11/18 04:53:48;;;;;;;2.30;2.10;;;;;;;20.54;56.64;98609.88;4990309;28;20230;-60
2021/11/18 04:56:15;;;;;;;2.50;2.30;;;;;;;20.25;56.34;98559.84;4974202;28;20237;-61
2021/11/18 04:58:41;;;;;;;2.17;1.97;;;;;;;20.52;56.38;98608.91;4973098;28;20228;-61
2021/11/18 05:01:09;;;;;;;2.17;1.97;;;;;;;20.52;56.44;98629.34;4954118;28;20231;-63
2021/11/18 05:03:36;;;;;;;2.30;2.10;;;;;;;20.53;56.33;98624.31;4990473;28;20202;-62
2021/11/18 05:06:03;;;;;;;2.20;2.00;;;;;;;20.48;56.28;98610.41;4988647;28;20242;-63
2021/11/18 05:08:29;;;;;;;2.40;2.20;;;;;;;20.37;56.49;98574.94;4961258;28;20727;-61
2021/11/18 05:10:56;;;;;;;2.40;2.20;;;;;;;20.53;56.46;98598.75;4988208;28;20299;-61
2021/11/18 05:13:26;;;;;;;2.00;1.90;;;;;;;20.50;56.21;98590.06;4972778;28;20806;-61
2021/11/18 05:15:53;;;;;;;2.20;2.00;;;;;;;20.54;56.56;98607.31;4956349;28;20234;-60
2021/11/18 05:18:19;;;;;;;1.80;1.70;;;;;;;20.54;56.63;98609.88;4974102;28;20636;-61
2021/11/18 05:20:46;;;;;;;2.13;2.00;;;;;;;20.51;56.40;98615.69;4961310;28;20258;-60
2021/11/18 05:23:13;;;;;;;2.27;2.07;;;;;;;20.52;56.33;98622.53;4973954;28;20250;-61
2021/11/18 05:25:40;;;;;;;2.33;2.13;;;;;;;20.53;56.44;98623.41;4971125;28;20231;-60
2021/11/18 05:28:06;;;;;;;1.93;1.73;;;;;;;20.53;56.39;98620.84;4975950;28;20290;-61
2021/11/18 05:30:33;;;;;;;2.10;1.90;;;;;;;20.54;56.44;98631.16;4992883;28;20219;-60
2021/11/18 05:33:03;;;;;;;2.30;2.10;;;;;;;20.54;56.37;98627.75;4976841;28;20207;-60
2021/11/18 05:35:29;;;;;;;2.07;1.87;;;;;;;20.50;56.61;98616.50;4975937;28;20249;-61
2021/11/18 05:37:56;;;;;;;2.17;2.00;;;;;;;20.52;56.35;98617.41;4961971;28;20250;-60
2021/11/18 05:40:23;;;;;;;2.17;1.97;;;;;;;20.54;56.48;98615.81;4989611;28;20318;-63
2021/11/18 05:42:49;;;;;;;2.20;2.00;;;;;;;20.52;56.46;98625.06;4993009;28;20286;-63
2021/11/18 05:45:18;;;;;;;3.00;2.73;;;;;;;20.51;55.87;98637.78;4974654;28;20238;-62
2021/11/18 05:47:45;;;;;;;5.73;4.80;;;;;;;20.53;55.24;98637.06;4966948;28;20202;-63
2021/11/18 05:50:12;;;;;;;5.23;4.73;;;;;;;20.53;54.27;98644.72;4993653;28;20262;-63
2021/11/18 05:52:39;;;;;;;6.43;5.63;;;;;;;20.50;53.90;98638.56;4977587;28;20241;-63
2021/11/18 05:55:06;;;;;;;5.73;5.13;;;;;;;20.38;53.76;98614.97;4978140;28;20231;-63
2021/11/18 05:57:33;;;;;;;7.23;4.93;;;;;;;20.52;53.63;98653.16;4976651;28;20285;-62
2021/11/18 05:59:59;;;;;;;5.77;5.23;;;;;;;20.50;53.81;98659.00;4977333;28;20261;-63
2021/11/18 06:02:26;;;;;;;5.83;5.23;;;;;;;20.51;54.46;98656.53;4977695;28;20771;-63
2021/11/18 06:04:53;;;;;;;5.43;4.93;;;;;;;20.51;54.38;98663.31;4993076;28;20254;-63
2021/11/18 06:07:19;;;;;;;4.90;4.40;;;;;;;20.49;54.81;98662.38;4993331;28;20203;-62
2021/11/18 06:09:46;;;;;;;5.20;4.70;;;;;;;20.49;55.11;98664.94;4993108;28;20895;-63
2021/11/18 06:12:12;;;;;;;5.80;4.70;;;;;;;20.51;54.89;98666.75;4993001;28;20681;-63
2021/11/18 06:14:39;;;;;;;4.23;3.83;;;;;;;20.47;55.18;98662.28;4975012;28;20390;-62
2021/11/18 06:17:06;;;;;;;4.87;4.10;;;;;;;20.50;55.23;98661.56;4978482;28;20199;-63
2021/11/18 06:19:34;;;;;;;4.70;3.77;;;;;;;20.50;55.23;98661.56;4977755;28;20691;-63
2021/11/18 06:22:00;;;;;;;4.80;4.30;;;;;;;20.52;55.30;98673.59;4993268;28;20310;-62
2021/11/18 06:24:27;;;;;;;6.10;4.20;;;;;;;20.52;55.18;98670.19;4992593;28;20195;-61
2021/11/18 06:26:55;;;;;;;4.00;3.60;;;;;;;20.47;55.25;98669.97;4992613;28;20286;-62
2021/11/18 06:29:22;;;;;;;3.73;3.43;;;;;;;20.48;55.11;98671.69;4978525;28;20261;-64
2021/11/18 06:31:50;;;;;;;4.13;3.73;;;;;;;20.52;55.38;98675.31;4979782;28;20676;-63
2021/11/18 06:34:18;;;;;;;4.13;3.70;;;;;;;20.53;55.25;98677.94;4992244;28;20406;-62
2021/11/18 06:36:45;;;;;;;4.37;3.90;;;;;;;20.06;55.36;98603.09;4992545;28;20634;-63
2021/11/18 06:39:12;;;;;;;4.10;3.70;;;;;;;20.53;55.48;98690.69;4992609;28;20592;-63
2021/11/18 06:41:38;;;;;;;4.00;3.40;;;;;;;20.54;55.36;98684.78;4961689;28;20258;-63
2021/11/18 06:44:05;;;;;;;3.70;3.20;;;;;;;20.53;55.32;98683.03;4987823;28;20206;-63
2021/11/18 06:46:32;;;;;;;4.57;3.60;;;;;;;20.54;55.14;98695.00;4963488;28;20241;-63
2021/11/18 06:48:59;;;;;;;3.17;2.87;;;;;;;20.55;55.55;98708.66;4979873;28;20258;-64
2021/11/18 06:51:25;;;;;;;3.47;3.17;;;;;;;20.54;55.60;98710.31;4977478;28;20254;-63
2021/11/18 06:53:54;;;;;;;3.33;3.03;;;;;;;20.55;55.36;98711.22;4991592;28;20234;-63
2021/11/18 06:56:21;;;;;;;3.50;3.20;;;;;;;20.55;55.36;98709.56;4992057;28;20226;-64
2021/11/18 06:58:48;;;;;;;3.57;3.27;;;;;;;20.55;55.53;98716.31;4991770;28;20258;-62
2021/11/18 07:01:15;;;;;;;3.40;3.10;;;;;;;20.56;55.32;98720.63;4974919;28;20720;-63
2021/11/18 07:03:42;;;;;;;3.77;3.27;;;;;;;20.56;55.61;98721.50;4976702;28;20237;-63
2021/11/18 07:06:10;;;;;;;3.67;3.27;;;;;;;20.49;55.51;98706.66;4975209;28;20198;-63
2021/11/18 07:08:36;;;;;;;3.60;3.30;;;;;;;20.56;55.36;98718.97;4976768;28;20620;-63
2021/11/18 07:11:03;;;;;;;3.07;2.77;;;;;;;20.55;55.52;98711.22;4977899;28;20203;-63
2021/11/18 07:13:32;;;;;;;3.00;2.80;;;;;;;20.57;55.42;98719.84;4967383;28;20270;-63
2021/11/18 07:16:00;;;;;;;3.60;3.27;;;;;;;20.55;55.56;98719.75;4991412;28;20211;-63
2021/11/18 07:18:27;;;;;;;3.50;3.20;;;;;;;20.54;55.28;98719.69;4958065;28;20204;-63
2021/11/18 07:20:53;;;;;;;3.37;3.07;;;;;;;20.56;55.48;98730.84;4990938;28;20640;-63
2021/11/18 07:23:20;;;;;;;3.87;2.80;;;;;;;20.56;55.56;98734.28;4992069;28;20199;-63
2021/11/18 07:25:48;;;;;;;7.50;6.80;;;;;;;20.56;53.90;98731.72;4991149;28;20230;-63
2021/11/18 07:28:15;;;;;;;9.77;8.80;;;;;;;20.55;52.10;98735.09;4991629;28;20199;-62
2021/11/18 07:30:43;;;;;;;7.73;6.93;;;;;;;20.50;51.80;98727.97;4991349;28;20258;-63
2021/11/18 07:33:10;;;;;;;7.33;6.43;;;;;;;20.53;52.61;98740.88;4974969;28;20625;-62
2021/11/18 07:35:37;;;;;;;7.53;6.50;;;;;;;20.51;53.01;98738.25;4990769;28;20198;-62
2021/11/18 07:38:03;;;;;;;7.53;6.77;;;;;;;20.49;53.15;98728.78;4989434;28;20591;-60
2021/11/18 07:40:30;;;;;;;6.83;6.13;;;;;;;20.52;53.45;98745.13;4991587;28;20242;-62
2021/11/18 07:42:57;;;;;;;7.13;6.10;;;;;;;20.52;53.01;98747.66;4991018;28;20234;-63
2021/11/18 07:45:24;;;;;;;6.60;6.00;;;;;;;20.51;53.92;98737.38;4991246;28;20249;-62
2021/11/18 07:47:51;;;;;;;6.63;5.93;;;;;;;20.53;53.97;98738.34;4971764;28;20223;-63
2021/11/18 07:50:18;;;;;;;6.40;5.73;;;;;;;20.53;54.05;98735.78;4970818;28;20266;-62
2021/11/18 07:52:44;;;;;;;6.60;5.20;;;;;;;20.48;54.43;98730.44;4987698;28;20261;-62
2021/11/18 07:55:12;;;;;;;5.80;5.00;;;;;;;20.53;54.32;98740.88;4952729;28;20289;-63
2021/11/18 07:57:39;;;;;;;5.87;5.37;;;;;;;20.53;54.73;98752.00;4954583;28;20234;-63
2021/11/18 08:00:07;;;;;;;6.27;5.67;;;;;;;20.49;54.55;98742.41;4970462;28;20664;-63
2021/11/18 08:02:34;;;;;;;5.73;5.13;;;;;;;20.49;54.38;98733.88;4970273;28;20234;-62
2021/11/18 08:05:02;;;;;;;5.10;4.60;;;;;;;20.54;54.52;98735.00;4970630;28;20222;-62
2021/11/18 08:07:28;;;;;;;4.93;4.23;;;;;;;20.54;54.69;98735.00;4970382;28;20207;-63
2021/11/18 08:09:55;;;;;;;4.90;4.50;;;;;;;20.55;54.66;98744.41;4987857;28;20289;-62
2021/11/18 08:12:22;;;;;;;4.97;4.53;;;;;;;20.50;54.62;98735.63;4987226;28;20210;-63
2021/11/18 08:14:48;;;;;;;5.00;4.40;;;;;;;20.55;54.73;98741.88;4987799;28;20298;-63
2021/11/18 08:17:15;;;;;;;7.07;4.70;;;;;;;19.96;54.75;98651.88;4970220;28;20238;-63
2021/11/18 08:19:41;;;;;;;4.77;4.20;;;;;;;20.50;54.77;98739.06;4983288;28;20731;-63
2021/11/18 08:22:08;;;;;;;5.17;4.57;;;;;;;20.56;54.68;98756.38;4969970;28;20234;-61
2021/11/18 08:24:35;;;;;;;5.03;4.53;;;;;;;20.52;54.70;98742.56;4987432;28;20289;-60
2021/11/18 08:27:02;;;;;;;4.30;3.90;;;;;;;20.57;55.08;98760.72;4970156;28;20294;-64
2021/11/18 08:29:29;;;;;;;5.60;4.33;;;;;;;20.47;54.88;98745.69;4987159;28;20265;-63
2021/11/18 08:31:56;;;;;;;6.03;4.17;;;;;;;20.56;54.76;98761.47;4970263;28;20293;-63
2021/11/18 08:34:24;;;;;;;5.07;4.60;;;;;;;20.56;54.80;98759.81;4969170;28;20677;-62
2021/11/18 08:36:50;;;;;;;5.00;3.90;;;;;;;20.56;54.76;98772.59;4987788;28;20256;-62
2021/11/18 08:39:19;;;;;;;4.50;4.10;;;;;;;20.55;54.88;98772.50;4987315;28;20257;-63
2021/11/18 08:41:47;;;;;;;3.70;3.40;;;;;;;20.53;54.87;98764.75;4987677;28;20253;-61
2021/11/18 08:44:14;;;;;;;4.20;3.80;;;;;;;20.55;55.01;98769.94;4987085;28;20238;-63
2021/11/18 08:46:40;;;;;;;4.57;3.93;;;;;;;20.56;55.00;98774.25;4987184;28;20503;-61
2021/11/18 08:49:07;;;;;;;4.23;3.83;;;;;;;20.54;54.86;98784.38;4987275;28;20227;-62
2021/11/18 08:51:34;;;;;;;4.10;3.70;;;;;;;20.53;55.10;98776.66;4987138;28;20657;-61
2021/11/18 08:54:03;;;;;;;3.67;3.37;;;;;;;20.52;54.91;98778.31;4970098;28;20289;-61
2021/11/18 08:56:30;;;;;;;4.23;3.83;;;;;;;20.55;55.07;98788.72;4987313;28;20222;-60
2021/11/18 08:58:57;;;;;;;4.17;3.70;;;;;;;20.50;55.26;98779.94;4987337;28;20261;-61
2021/11/18 09:01:32;;;;;;;3.77;3.47;;;;;;;20.54;55.00;98786.94;4963655;28;20202;-62
2021/11/18 09:04:00;;;;;;;3.53;3.23;;;;;;;20.54;54.92;98794.59;4989046;28;20225;-61
2021/11/18 09:06:27;;;;;;;3.93;3.57;;;;;;;20.52;55.13;98785.97;4973809;28;20334;-61
2021/11/18 09:08:54;;;;;;;3.90;3.50;;;;;;;20.49;55.13;98782.41;4958884;28;20261;-62
2021/11/18 09:11:20;;;;;;;3.70;3.30;;;;;;;20.53;55.15;98792.84;4974194;28;20227;-61
2021/11/18 09:13:48;;;;;;;4.00;3.20;;;;;;;20.55;55.10;98791.28;4973481;28;20290;-61
2021/11/18 09:16:16;;;;;;;5.03;3.20;;;;;;;20.55;55.07;98798.94;4991183;28;20288;-61
2021/11/18 09:18:43;;;;;;;3.17;2.87;;;;;;;20.56;55.05;98798.13;4973783;28;20230;-61
2021/11/18 09:21:13;;;;;;;3.40;3.10;;;;;;;20.56;55.22;98799.78;4991678;28;20210;-60
2021/11/18 09:23:48;;;;;;;3.37;3.10;;;;;;;20.56;55.25;98799.78;4987854;28;20313;-60
2021/11/18 09:26:15;;;;;;;3.30;3.00;;;;;;;20.56;55.18;98803.25;4974157;28;20774;-60
2021/11/18 09:28:41;;;;;;;3.23;2.90;;;;;;;20.57;55.21;98801.56;4990948;28;20238;-61
2021/11/18 09:31:09;;;;;;;3.70;3.40;;;;;;;20.56;55.21;98800.69;4991480;28;20321;-62
2021/11/18 09:33:36;;;;;;;3.43;3.13;;;;;;;20.51;55.38;98797.00;4973935;28;20200;-59
2021/11/18 09:36:05;;;;;;;3.37;3.07;;;;;;;20.54;55.38;98807.38;4972480;28;20293;-60
2021/11/18 09:38:33;;;;;;;3.50;3.20;;;;;;;20.54;55.28;98815.03;4963550;28;20290;-63
2021/11/18 09:41:14;;;;;;;3.53;3.23;;;;;;;20.57;55.27;98807.53;4990805;28;20207;-60
2021/11/18 09:44:19;;;;;;;3.40;3.10;;;;;;;20.57;55.16;98809.25;4975171;28;20235;-62
2021/11/18 09:47:07;;;;;;;4.70;4.17;;;;;;;20.56;55.10;98800.69;4990063;28;20293;-61
2021/11/18 09:49:59;;;;;;;10.20;8.23;;;;;;;20.55;53.80;98793.84;4990422;28;20346;-61
2021/11/18 09:53:02;;;;;;;11.97;9.67;;;;;;;20.51;52.63;98785.88;4971084;28;20209;-61
2021/11/18 09:55:44;;;;;;;14.20;11.63;;;;;;;20.54;52.02;98789.50;4973936;28;20289;-61
2021/11/18 09:58:45;;;;;;;14.63;10.57;;;;;;;20.52;52.17;98791.09;4989737;28;20592;-61
2021/11/18 10:01:33;;;;;;;11.20;9.30;;;;;;;20.53;52.90;98802.19;4975530;28;20736;-60
2021/11/18 10:04:18;;;;;;;10.07;8.37;;;;;;;20.51;53.04;98789.34;4989947;28;20213;-60
2021/11/18 10:06:45;;;;;;;9.87;8.43;;;;;;;20.51;53.16;98797.00;4988502;28;20209;-60
2021/11/18 10:09:14;;;;;;;11.43;9.50;;;;;;;20.51;53.46;98793.56;4963383;28;20255;-60
2021/11/18 10:12:06;;;;;;;9.77;8.23;;;;;;;20.51;53.81;98806.31;4970099;28;20254;-61
2021/11/18 10:14:45;;;;;;;8.40;7.17;;;;;;;20.50;53.89;98805.47;4988243;28;20238;-61
2021/11/18 10:17:21;;;;;;;11.00;7.70;;;;;;;20.50;53.93;98797.81;4987546;28;20270;-60
2021/11/18 10:19:59;;;;;;;10.07;7.27;;;;;;;20.52;54.14;98815.75;4986252;28;20313;-61
2021/11/18 10:22:26;;;;;;;9.50;8.00;;;;;;;20.51;54.16;98806.31;4980664;28;20293;-60
2021/11/18 10:24:54;;;;;;;8.63;7.23;;;;;;;20.49;54.09;98798.59;4989441;28;20265;-61
2021/11/18 10:27:47;;;;;;;9.97;6.77;;;;;;;20.52;54.48;98808.97;4969878;28;20230;-60
2021/11/18 10:30:40;;;;;;;9.10;7.43;;;;;;;20.53;54.21;98808.19;4981851;28;20262;-59
2021/11/18 10:33:09;;;;;;;8.27;7.10;;;;;;;20.53;54.39;98809.84;4984350;28;20205;-60
2021/11/18 10:35:53;;;;;;;8.23;6.23;;;;;;;20.53;54.61;98805.63;4991337;28;20215;-60
2021/11/18 10:38:31;;;;;;;7.43;6.50;;;;;;;20.53;54.63;98808.19;4988888;28;20207;-60
2021/11/18 10:41:00;;;;;;;6.97;6.03;;;;;;;20.53;54.47;98808.19;4984557;28;20628;-61
2021/11/18 10:43:32;;;;;;;9.70;6.73;;;;;;;20.53;54.67;98808.19;4988683;28;20211;-61
2021/11/18 10:46:31;;;;;;;6.40;5.73;;;;;;;20.54;54.68;98803.97;4989071;28;20207;-61
2021/11/18 10:49:03;;;;;;;7.13;6.10;;;;;;;20.54;54.65;98797.16;4954514;28;20226;-61
2021/11/18 10:51:47;;;;;;;8.53;6.10;;;;;;;20.54;54.72;98804.81;4992370;28;20223;-60
2021/11/18 10:54:15;;;;;;;7.50;5.90;;;;;;;20.53;54.55;98797.97;4973582;28;20249;-59
2021/11/18 10:56:48;;;;;;;6.80;5.90;;;;;;;20.53;54.79;98797.97;4989277;28;20619;-61
2021/11/18 10:59:18;;;;;;;6.33;5.70;;;;;;;20.55;54.80;98795.50;4988687;28;20227;-61
2021/11/18 11:01:48;;;;;;;7.37;6.30;;;;;;;20.54;54.77;98807.38;4970846;28;20685;-60
2021/11/18 11:04:38;;;;;;;7.70;6.27;;;;;;;20.54;54.63;98797.16;4989364;28;20636;-61
2021/11/18 11:07:05;;;;;;;5.77;5.00;;;;;;;20.55;54.63;98798.06;4959657;28;20235;-61
2021/11/18 11:09:36;;;;;;;7.03;5.70;;;;;;;20.48;54.73;98793.38;4989721;28;20227;-60
2021/11/18 11:12:24;;;;;;;6.47;5.53;;;;;;;20.55;54.95;98810.81;4972308;28;20203;-60
2021/11/18 11:15:06;;;;;;;6.83;5.53;;;;;;;20.55;54.66;98804.03;4970972;28;20199;-60
2021/11/18 11:17:39;;;;;;;6.70;5.60;;;;;;;20.52;54.74;98800.44;4988580;28;20349;-61
2021/11/18 11:20:18;;;;;;;6.83;5.70;;;;;;;20.54;54.70;98799.72;4988494;28;20223;-61
2021/11/18 11:23:09;;;;;;;6.73;5.47;;;;;;;20.54;54.79;98796.31;4989575;28;20643;-60
2021/11/18 11:25:52;;;;;;;7.53;5.13;;;;;;;20.48;54.85;98788.28;4987676;28;20261;-60
2021/11/18 11:28:31;;;;;;;6.27;5.67;;;;;;;20.53;54.95;98786.88;4970257;28;20199;-61
2021/11/18 11:31:28;;;;;;;5.40;4.90;;;;;;;20.53;54.72;98782.66;4987540;28;20233;-64
2021/11/18 11:34:26;;;;;;;6.57;4.87;;;;;;;20.53;54.78;98776.66;4970852;28;20205;-61
2021/11/18 11:37:30;;;;;;;6.97;5.53;;;;;;;20.52;54.92;98778.31;4986605;28;20691;-61
2021/11/18 11:40:06;;;;;;;5.87;5.20;;;;;;;20.48;54.94;98772.97;4987512;28;20618;-61
2021/11/18 11:42:47;;;;;;;6.27;5.37;;;;;;;20.53;54.92;98781.75;4956847;28;20670;-60
2021/11/18 11:45:18;;;;;;;5.70;5.00;;;;;;;20.53;54.91;98779.19;4967535;28;20250;-62